Time;durP1;ratioP1;P1;durP2;ratioP2;P2;SDS_P1;SDS_P2;PMS_P1;PMS_P2;Temp;Humidity;BMP_temperature;BMP_pressure;BME280_temperature;BME280_humidity;BME280_pressure;Samples;Min_cycle;Max_cycle;Signal;HPM_P1;HPM_P2
2023/02/10 00:01:14;;;;;;;16.40;7.30;;;;;;;-2.70;42.50;102770.52;108038;1286;22003;-60
2023/02/10 00:03:39;;;;;;;18.40;8.40;;;;;;;-2.63;42.62;102769.52;108064;1286;21986;-60
2023/02/10 00:06:06;;;;;;;19.90;8.10;;;;;;;-2.64;42.66;102769.75;108238;1284;22032;-60
2023/02/10 00:08:33;;;;;;;19.70;8.30;;;;;;;-2.56;42.56;102771.93;108169;1286;21986;-62
2023/02/10 00:11:00;;;;;;;23.60;10.80;;;;;;;-2.51;42.54;102773.23;108157;1286;23641;-63
2023/02/10 00:13:26;;;;;;;24.00;10.40;;;;;;;-2.58;42.16;102770.28;108172;1283;23714;-63
2023/02/10 00:15:53;;;;;;;21.10;7.90;;;;;;;-2.70;41.83;102770.33;107391;1287;1002367;-60
2023/02/10 00:18:19;;;;;;;16.60;7.70;;;;;;;-2.83;41.98;102766.07;108200;1287;22026;-62
2023/02/10 00:20:44;;;;;;;25.00;9.20;;;;;;;-2.84;42.25;102768.88;108176;1287;22001;-60
2023/02/10 00:23:10;;;;;;;24.30;8.40;;;;;;;-2.79;42.41;102768.43;108166;1287;21973;-62
2023/02/10 00:25:37;;;;;;;18.80;7.70;;;;;;;-2.52;42.34;102766.21;108108;1287;22011;-60
2023/02/10 00:28:03;;;;;;;22.10;8.60;;;;;;;-2.17;41.74;102762.83;108135;1286;21999;-60
2023/02/10 00:30:30;;;;;;;17.20;8.60;;;;;;;-2.61;42.02;102765.90;108229;1287;22025;-62
2023/02/10 00:32:56;;;;;;;18.00;7.50;;;;;;;-2.51;42.20;102756.52;107439;1287;1002952;-60
2023/02/10 00:35:23;;;;;;;22.90;9.30;;;;;;;-2.21;41.60;102753.69;108116;1286;22049;-62
2023/02/10 00:37:48;;;;;;;17.50;8.20;;;;;;;-2.32;41.12;102750.67;108157;1287;21991;-63
2023/02/10 00:40:15;;;;;;;18.50;8.00;;;;;;;-2.41;41.36;102750.30;107425;1287;1002409;-61
2023/02/10 00:42:41;;;;;;;18.90;7.70;;;;;;;-2.41;41.40;102746.15;108141;1287;22027;-62
2023/02/10 00:45:07;;;;;;;17.80;6.90;;;;;;;-2.38;41.70;102739.68;108101;1287;21989;-61
2023/02/10 00:47:33;;;;;;;16.80;7.30;;;;;;;-2.31;41.78;102740.19;108227;1287;22104;-63
2023/02/10 00:49:59;;;;;;;21.40;7.70;;;;;;;-2.25;41.97;102738.29;108162;1286;21990;-62
2023/02/10 00:52:24;;;;;;;14.70;6.80;;;;;;;-2.13;41.88;102735.44;108114;1287;21997;-62
2023/02/10 00:54:50;;;;;;;17.50;8.10;;;;;;;-1.98;41.99;102730.34;108179;1287;21995;-60
2023/02/10 00:57:16;;;;;;;18.10;7.60;;;;;;;-1.89;41.99;102731.37;108154;1287;23465;-62
2023/02/10 00:59:41;;;;;;;19.80;7.90;;;;;;;-1.81;41.97;102729.79;108106;1280;21991;-60
2023/02/10 01:02:07;;;;;;;19.70;7.60;;;;;;;-1.73;42.03;102728.95;108127;1287;21938;-61
2023/02/10 01:04:33;;;;;;;17.20;6.40;;;;;;;-1.67;41.98;102731.84;107423;1283;1002273;-59
2023/02/10 01:06:59;;;;;;;21.20;7.70;;;;;;;-1.68;41.62;102730.40;108120;1287;21985;-60
2023/02/10 01:09:25;;;;;;;17.30;6.70;;;;;;;-1.71;41.56;102728.06;108139;1287;21991;-62
2023/02/10 01:11:51;;;;;;;14.20;6.30;;;;;;;-1.73;41.85;102727.95;107374;1287;1002563;-62
2023/02/10 01:14:16;;;;;;;20.20;10.10;;;;;;;-1.74;41.93;102726.31;107367;1287;1002922;-63
2023/02/10 01:16:42;;;;;;;49.00;13.00;;;;;;;-1.66;41.86;102722.92;108124;1287;22460;-62
2023/02/10 01:19:08;;;;;;;51.00;15.10;;;;;;;-1.58;41.73;102715.59;108126;1287;22004;-60
2023/02/10 01:21:38;;;;;;;22.00;8.00;;;;;;;-1.49;42.00;102709.02;108149;1287;21981;-62
2023/02/10 01:24:05;;;;;;;12.90;5.70;;;;;;;-1.44;41.71;102710.77;108128;1287;21990;-60
2023/02/10 01:26:34;;;;;;;15.90;5.80;;;;;;;-1.47;41.51;102712.07;107391;1287;1002423;-62
2023/02/10 01:29:01;;;;;;;13.60;6.20;;;;;;;-1.51;41.58;102707.91;108161;1287;21999;-60
2023/02/10 01:31:26;;;;;;;16.80;6.40;;;;;;;-1.52;41.66;102705.54;108180;1287;21987;-59
2023/02/10 01:33:53;;;;;;;14.00;6.80;;;;;;;-1.55;41.51;102704.67;108112;1287;22052;-62
2023/02/10 01:36:21;;;;;;;17.00;6.40;;;;;;;-1.63;41.28;102705.81;107436;1287;1002380;-60
2023/02/10 01:38:47;;;;;;;16.30;6.60;;;;;;;-1.70;41.36;102703.22;108169;1287;21989;-61
2023/02/10 01:41:14;;;;;;;17.20;7.00;;;;;;;-1.71;41.37;102700.20;108137;1287;21987;-60
2023/02/10 01:44:21;;;;;;;14.00;7.00;;;;;;;-1.71;41.46;102700.56;108148;1286;23081;-63
2023/02/10 01:46:47;;;;;;;16.00;7.30;;;;;;;-1.69;41.40;102693.63;107966;1287;21995;-60
2023/02/10 01:49:15;;;;;;;13.90;6.30;;;;;;;-1.68;41.52;102694.94;108168;1287;21987;-60
2023/02/10 01:51:42;;;;;;;14.00;6.30;;;;;;;-1.69;41.39;102692.43;107459;1287;1002026;-62
2023/02/10 01:54:12;;;;;;;17.70;7.90;;;;;;;-1.69;41.52;102696.23;108216;1286;22080;-60
2023/02/10 01:56:38;;;;;;;;;;;;;;;-1.65;41.60;102693.27;108257;1287;21971;-62
2023/02/10 01:59:04;;;;;;;13.00;5.70;;;;;;;-1.61;41.54;102690.98;107372;1287;1002687;-60
2023/02/10 02:01:30;;;;;;;14.90;6.10;;;;;;;-1.59;41.52;102688.90;107170;1287;1002526;-60
2023/02/10 02:03:55;;;;;;;13.30;6.30;;;;;;;-1.57;41.48;102690.58;107403;1287;1002916;-62
2023/02/10 02:06:22;;;;;;;17.80;7.00;;;;;;;-1.58;41.53;102688.11;108172;1287;21992;-61
2023/02/10 02:08:50;;;;;;;16.00;7.40;;;;;;;-1.55;41.60;102688.29;107421;1287;1002602;-60
2023/02/10 02:11:44;;;;;;;18.30;7.10;;;;;;;-1.49;41.79;102686.67;108147;1287;22024;-61
2023/02/10 02:14:26;;;;;;;16.30;6.60;;;;;;;-1.43;41.59;102680.08;108137;1287;22027;-62
2023/02/10 02:16:57;;;;;;;13.60;6.60;;;;;;;-1.37;41.58;102680.82;107410;1287;1002403;-62
2023/02/10 02:19:43;;;;;;;12.20;6.10;;;;;;;-1.31;41.58;102675.76;107421;1287;1002192;-62
2023/02/10 02:22:27;;;;;;;13.80;6.20;;;;;;;-1.27;41.51;102678.30;108125;1287;21986;-61
2023/02/10 02:25:25;;;;;;;17.90;5.70;;;;;;;-1.22;41.76;102678.82;107465;1287;1003225;-60
2023/02/10 02:27:59;;;;;;;14.10;5.70;;;;;;;-1.18;41.57;102670.98;108227;1287;22000;-60
2023/02/10 02:30:46;;;;;;;14.70;5.90;;;;;;;-1.17;41.49;102668.50;108257;1287;22006;-61
2023/02/10 02:33:22;;;;;;;14.60;6.30;;;;;;;-1.18;41.38;102671.69;108144;1287;21987;-60
2023/02/10 02:35:59;;;;;;;13.50;6.00;;;;;;;-1.23;41.24;102672.03;107418;1287;1002464;-62
2023/02/10 02:38:24;;;;;;;15.80;6.40;;;;;;;-1.31;41.18;102676.80;107366;1287;1003019;-63
2023/02/10 02:40:50;;;;;;;13.30;6.50;;;;;;;-1.46;41.13;102678.11;107343;1287;1002451;-61
2023/02/10 02:43:16;;;;;;;15.40;6.50;;;;;;;-1.70;40.97;102678.73;108097;1287;21991;-62
2023/02/10 02:46:05;;;;;;;12.30;5.50;;;;;;;-1.91;41.18;102679.80;107398;1287;1002556;-61
2023/02/10 02:48:33;;;;;;;14.50;6.70;;;;;;;-2.03;41.25;102683.66;108247;1287;21991;-63
2023/02/10 02:51:15;;;;;;;16.00;6.80;;;;;;;-2.16;41.19;102682.55;107418;1287;1002630;-63
2023/02/10 02:53:46;;;;;;;12.60;5.90;;;;;;;-2.28;41.16;102685.02;108137;1287;21998;-62
2023/02/10 02:56:36;;;;;;;14.10;6.30;;;;;;;-2.42;41.11;102683.33;108191;1287;21998;-60
2023/02/10 02:59:23;;;;;;;14.50;5.90;;;;;;;-2.55;41.22;102678.99;107397;1287;1002425;-59
2023/02/10 03:01:57;;;;;;;15.80;6.80;;;;;;;-2.60;41.41;102681.20;108127;1287;22005;-62
2023/02/10 03:04:26;;;;;;;14.10;6.20;;;;;;;-2.60;41.70;102677.13;108144;1287;21995;-60
2023/02/10 03:06:52;;;;;;;12.70;5.60;;;;;;;-2.56;41.84;102676.37;108001;1287;21989;-62
2023/02/10 03:09:18;;;;;;;11.40;5.70;;;;;;;-2.50;41.94;102677.00;108203;1287;21990;-60
2023/02/10 03:11:43;;;;;;;13.40;6.10;;;;;;;-2.44;42.02;102676.58;108102;1287;21995;-62
2023/02/10 03:14:10;;;;;;;13.60;5.70;;;;;;;-2.44;41.83;102671.16;108169;1287;22100;-60
2023/02/10 03:16:36;;;;;;;11.20;5.30;;;;;;;-2.46;41.70;102666.64;108130;1287;24079;-62
2023/02/10 03:19:03;;;;;;;12.90;5.70;;;;;;;-2.50;41.61;102666.34;108130;1287;22027;-61
2023/02/10 03:21:29;;;;;;;12.40;5.80;;;;;;;-2.53;41.81;102665.45;107370;1287;1002336;-60
2023/02/10 03:23:55;;;;;;;11.10;5.40;;;;;;;-2.54;41.68;102665.52;107407;1287;1002640;-62
2023/02/10 03:26:21;;;;;;;12.30;5.20;;;;;;;-2.60;41.48;102667.31;108117;1287;21994;-60
2023/02/10 03:28:48;;;;;;;12.20;5.70;;;;;;;-2.68;41.36;102663.91;108230;1287;21994;-60
2023/02/10 03:31:13;;;;;;;13.30;5.50;;;;;;;-2.74;41.55;102666.39;108211;1287;21986;-60
2023/02/10 03:33:40;;;;;;;14.90;6.10;;;;;;;-2.79;41.51;102663.58;108144;1287;21986;-60
2023/02/10 03:36:06;;;;;;;11.20;5.50;;;;;;;-2.87;41.50;102666.78;108140;1287;22004;-61
2023/02/10 03:38:32;;;;;;;14.40;6.00;;;;;;;-2.94;41.50;102667.36;108088;1287;21994;-62
2023/02/10 03:40:57;;;;;;;10.20;4.60;;;;;;;-2.88;41.48;102663.08;108219;1287;21999;-62
2023/02/10 03:43:23;;;;;;;12.10;5.50;;;;;;;-2.86;41.45;102667.65;108234;1287;21995;-61
2023/02/10 03:45:49;;;;;;;15.10;5.70;;;;;;;-2.91;41.59;102669.54;108172;1287;22003;-60
2023/02/10 03:48:15;;;;;;;12.40;4.90;;;;;;;-3.00;41.66;102669.03;108097;1287;22003;-60
2023/02/10 03:50:41;;;;;;;11.40;5.00;;;;;;;-3.02;41.76;102663.64;108178;1287;21986;-60
2023/02/10 03:53:07;;;;;;;13.40;6.40;;;;;;;-2.98;41.93;102663.32;108131;1287;21998;-61
2023/02/10 03:55:34;;;;;;;12.90;5.30;;;;;;;-2.89;42.00;102661.77;108178;1287;21995;-60
2023/02/10 03:58:03;;;;;;;10.80;4.70;;;;;;;-2.91;41.96;102661.09;108165;1287;21992;-61
2023/02/10 04:00:29;;;;;;;16.70;6.80;;;;;;;-2.87;42.03;102657.80;107425;1287;1002398;-62
2023/02/10 04:02:56;;;;;;;16.90;6.40;;;;;;;-2.84;42.04;102660.30;107409;1283;1002542;-61
2023/02/10 04:05:22;;;;;;;12.20;4.70;;;;;;;-2.80;42.05;102658.50;108287;1286;21983;-61
2023/02/10 04:07:47;;;;;;;11.70;4.80;;;;;;;-2.77;42.30;102659.99;108109;1287;21995;-61
2023/02/10 04:10:13;;;;;;;11.90;5.30;;;;;;;-2.69;42.66;102658.68;108030;1286;21992;-61
2023/02/10 04:12:40;;;;;;;11.20;5.20;;;;;;;-2.58;42.36;102660.23;108038;1287;22079;-61
2023/02/10 04:15:06;;;;;;;13.30;5.70;;;;;;;-2.57;42.33;102661.67;108079;1287;21994;-63
2023/02/10 04:17:32;;;;;;;11.90;5.30;;;;;;;-2.57;42.19;102658.77;108110;1287;21995;-61
2023/02/10 04:19:59;;;;;;;13.80;6.10;;;;;;;-2.54;42.19;102658.64;107317;1287;1002056;-61
2023/02/10 04:22:25;;;;;;;12.80;5.90;;;;;;;-2.52;42.22;102656.90;108090;1287;21996;-62
2023/02/10 04:24:51;;;;;;;12.70;6.10;;;;;;;-2.48;42.18;102658.23;108079;1287;21990;-61
2023/02/10 04:27:17;;;;;;;14.60;6.30;;;;;;;-2.44;42.33;102658.75;108091;1287;21995;-63
2023/02/10 04:29:43;;;;;;;13.10;5.60;;;;;;;-2.41;42.21;102662.94;107344;1282;1003071;-61
2023/02/10 04:32:09;;;;;;;12.40;6.00;;;;;;;-2.39;42.37;102665.16;107329;1287;1002576;-64
2023/02/10 04:34:35;;;;;;;12.80;5.80;;;;;;;-2.34;42.31;102665.65;107355;1287;1002271;-64
2023/02/10 04:37:00;;;;;;;13.00;5.40;;;;;;;-2.29;42.64;102667.48;107387;1285;1014842;-64
2023/02/10 04:39:26;;;;;;;12.70;6.10;;;;;;;-2.18;42.62;102671.24;107362;1287;1002804;-61
2023/02/10 04:41:52;;;;;;;12.20;5.10;;;;;;;-2.05;42.79;102667.73;108117;1287;22053;-63
2023/02/10 04:44:17;;;;;;;13.00;5.40;;;;;;;-1.95;42.76;102670.73;107331;1287;1003138;-63
2023/02/10 04:46:43;;;;;;;13.40;5.60;;;;;;;-1.89;42.69;102667.39;107328;1287;1003281;-61
2023/02/10 04:49:09;;;;;;;11.50;5.10;;;;;;;-1.85;42.55;102670.46;108059;1287;22028;-63
2023/02/10 04:51:35;;;;;;;15.60;5.60;;;;;;;-1.80;42.74;102673.75;108100;1287;22107;-61
2023/02/10 04:54:01;;;;;;;12.40;5.20;;;;;;;-1.73;42.68;102678.03;108199;1287;21993;-61
2023/02/10 04:56:28;;;;;;;13.40;5.70;;;;;;;-1.67;42.67;102677.42;108123;1287;22004;-63
2023/02/10 04:58:54;;;;;;;11.40;5.50;;;;;;;-1.62;42.74;102675.60;108082;1287;22011;-64
2023/02/10 05:01:20;;;;;;;13.20;5.30;;;;;;;-1.59;42.57;102676.63;108042;1286;21992;-61
2023/02/10 05:03:45;;;;;;;18.90;6.70;;;;;;;-1.59;42.49;102673.69;108085;1287;21992;-62
2023/02/10 05:06:12;;;;;;;15.00;5.40;;;;;;;-1.59;42.67;102674.20;108082;1287;21987;-61
2023/02/10 05:08:41;;;;;;;14.70;6.20;;;;;;;-1.58;42.60;102676.00;108123;1286;22029;-63
2023/02/10 05:11:13;;;;;;;12.70;5.80;;;;;;;-1.59;42.43;102676.86;108217;1287;21986;-61
2023/02/10 05:13:39;;;;;;;13.90;5.50;;;;;;;-1.59;42.52;102677.84;108127;1287;21999;-62
2023/02/10 05:16:07;;;;;;;15.10;6.70;;;;;;;-1.58;42.50;102677.60;108165;1287;21994;-63
2023/02/10 05:18:34;;;;;;;14.30;6.70;;;;;;;-1.58;42.52;102676.21;108149;1287;22000;-61
2023/02/10 05:21:04;;;;;;;15.60;6.30;;;;;;;-1.58;42.71;102677.24;108115;1287;22027;-61
2023/02/10 05:23:30;;;;;;;15.80;6.10;;;;;;;-1.59;42.60;102679.77;108141;1287;22002;-61
2023/02/10 05:25:56;;;;;;;18.90;7.50;;;;;;;-1.58;42.96;102680.88;108136;1287;22045;-63
2023/02/10 05:28:22;;;;;;;23.70;7.30;;;;;;;-1.55;43.13;102676.26;108126;1287;21995;-63
2023/02/10 05:30:48;;;;;;;16.60;6.50;;;;;;;-1.45;43.47;102679.90;107391;1287;1002490;-62
2023/02/10 05:33:14;;;;;;;16.80;5.80;;;;;;;-1.38;43.07;102678.88;108115;1287;22094;-61
2023/02/10 05:35:40;;;;;;;11.70;5.20;;;;;;;-1.34;42.90;102681.05;107892;1287;23054;-62
2023/02/10 05:38:05;;;;;;;12.00;5.50;;;;;;;-1.31;42.82;102685.56;108091;1287;22421;-62
2023/02/10 05:40:31;;;;;;;18.90;5.90;;;;;;;-1.29;42.91;102685.73;108123;1287;21995;-61
2023/02/10 05:42:57;;;;;;;20.40;7.10;;;;;;;-1.25;43.14;102684.59;108136;1287;21989;-62
2023/02/10 05:45:23;;;;;;;18.50;6.30;;;;;;;-1.12;43.46;102682.80;108118;1287;22011;-61
2023/02/10 05:47:50;;;;;;;22.30;6.30;;;;;;;-1.01;43.36;102685.48;108136;1287;22031;-61
2023/02/10 05:50:16;;;;;;;31.80;7.70;;;;;;;-0.93;43.36;102681.45;108097;1287;21995;-61
2023/02/10 05:52:42;;;;;;;21.70;7.10;;;;;;;-0.82;43.89;102683.59;107361;1287;1003155;-63
2023/02/10 05:55:07;;;;;;;20.50;7.60;;;;;;;-0.69;43.73;102683.98;108107;1287;22043;-62
2023/02/10 05:57:34;;;;;;;14.90;6.90;;;;;;;-0.57;43.77;102686.33;108151;1287;21998;-62
2023/02/10 05:59:59;;;;;;;16.20;6.70;;;;;;;-0.46;43.88;102688.64;108211;1287;21958;-61
2023/02/10 06:02:25;;;;;;;19.80;7.90;;;;;;;-0.34;43.82;102687.92;108219;1283;21999;-60
2023/02/10 06:04:50;;;;;;;17.20;7.40;;;;;;;-0.22;43.70;102688.73;108098;1287;22009;-60
2023/02/10 06:07:17;;;;;;;17.30;6.90;;;;;;;-0.12;43.68;102688.41;108130;1280;21991;-66
2023/02/10 06:09:44;;;;;;;18.10;8.70;;;;;;;-0.02;43.66;102687.34;108136;1287;23395;-65
2023/02/10 06:12:10;;;;;;;16.60;7.50;;;;;;;0.06;43.85;102683.77;108080;1287;21996;-62
2023/02/10 06:14:37;;;;;;;14.20;7.20;;;;;;;0.17;43.64;102686.58;108129;1287;21994;-61
2023/02/10 06:17:08;;;;;;;14.40;8.00;;;;;;;0.28;43.75;102682.64;108124;1286;22028;-64
2023/02/10 06:19:35;;;;;;;16.00;7.50;;;;;;;0.42;44.21;102684.90;108109;1287;21990;-60
2023/02/10 06:22:02;;;;;;;16.50;7.60;;;;;;;0.56;44.08;102683.92;107414;1287;1002328;-61
2023/02/10 06:24:28;;;;;;;18.00;7.90;;;;;;;0.68;44.14;102685.07;108126;1287;21994;-60
2023/02/10 06:26:54;;;;;;;17.30;8.10;;;;;;;0.81;44.28;102683.00;108125;1287;21994;-64
2023/02/10 06:29:20;;;;;;;18.50;9.60;;;;;;;0.95;44.19;102681.92;108160;1287;21989;-60
2023/02/10 06:31:46;;;;;;;46.30;19.30;;;;;;;1.09;44.13;102672.64;108107;1287;21992;-63
2023/02/10 06:34:12;;;;;;;24.00;11.90;;;;;;;1.24;44.17;102670.65;108106;1287;21988;-65
2023/02/10 06:36:38;;;;;;;24.10;12.10;;;;;;;1.39;44.29;102672.29;107365;1287;1002259;-65
2023/02/10 06:39:03;;;;;;;24.10;12.00;;;;;;;1.59;44.09;102674.20;107938;1287;304837;-61
2023/02/10 06:41:30;;;;;;;25.80;12.80;;;;;;;1.80;44.04;102674.08;108137;1287;21989;-60
2023/02/10 06:43:56;;;;;;;27.90;12.90;;;;;;;1.96;44.27;102669.10;108171;1287;22001;-65
2023/02/10 06:46:22;;;;;;;27.00;13.40;;;;;;;2.14;44.25;102674.88;107389;1287;1002318;-64
2023/02/10 06:48:48;;;;;;;25.20;12.70;;;;;;;2.28;43.93;102677.54;108107;1287;22030;-62
2023/02/10 06:51:14;;;;;;;27.80;12.80;;;;;;;2.38;43.81;102672.24;108225;1287;21993;-61
2023/02/10 06:53:40;;;;;;;24.70;12.10;;;;;;;2.49;43.99;102670.98;107209;1287;1002798;-63
2023/02/10 06:56:06;;;;;;;24.30;12.60;;;;;;;2.60;43.93;102670.94;108116;1287;21993;-66
2023/02/10 06:58:32;;;;;;;40.80;18.20;;;;;;;2.70;43.82;102669.38;107373;1287;1002474;-63
2023/02/10 07:01:00;;;;;;;35.20;15.90;;;;;;;2.82;44.16;102672.88;107379;1287;1002359;-63
2023/02/10 07:03:27;;;;;;;25.70;14.30;;;;;;;2.96;43.97;102674.34;108099;1287;22013;-67
2023/02/10 07:05:52;;;;;;;25.20;13.20;;;;;;;3.04;43.52;102672.16;108143;1287;23060;-66
2023/02/10 07:08:18;;;;;;;23.70;12.60;;;;;;;3.13;43.62;102671.77;108108;1287;21999;-66
2023/02/10 07:10:44;;;;;;;24.40;12.50;;;;;;;3.23;43.64;102673.73;108102;1287;21992;-66
2023/02/10 07:13:10;;;;;;;25.60;13.10;;;;;;;3.34;43.58;102669.28;107412;1287;1003004;-65
2023/02/10 07:15:36;;;;;;;28.70;14.60;;;;;;;3.36;43.72;102671.14;108113;1287;21995;-65
2023/02/10 07:18:02;;;;;;;22.70;11.80;;;;;;;3.46;44.06;102676.52;108151;1287;21992;-66
2023/02/10 07:20:28;;;;;;;26.30;14.40;;;;;;;3.59;43.82;102675.45;108111;1287;22009;-64
2023/02/10 07:22:54;;;;;;;23.10;13.00;;;;;;;3.69;43.99;102671.16;107353;1287;1002872;-65
2023/02/10 07:25:21;;;;;;;24.00;13.10;;;;;;;3.83;44.17;102669.44;108122;1287;21989;-66
2023/02/10 07:27:47;;;;;;;23.70;12.90;;;;;;;3.74;44.67;102671.76;108118;1287;22011;-66
2023/02/10 07:30:13;;;;;;;32.90;16.20;;;;;;;3.78;45.10;102669.69;108069;1287;21996;-64
2023/02/10 07:32:41;;;;;;;26.30;13.80;;;;;;;3.95;45.16;102666.91;107371;1287;1002870;-66
2023/02/10 07:35:08;;;;;;;30.40;16.80;;;;;;;4.11;44.66;102660.98;107437;1287;1002324;-66
2023/02/10 07:37:35;;;;;;;26.00;13.70;;;;;;;4.25;44.77;102655.02;108167;1287;21982;-66
2023/02/10 07:40:00;;;;;;;27.20;14.30;;;;;;;4.41;44.97;102648.52;107387;1287;1003081;-63
2023/02/10 07:42:26;;;;;;;26.50;13.80;;;;;;;4.59;44.60;102643.70;107438;1287;1002457;-65
2023/02/10 07:44:52;;;;;;;29.60;16.20;;;;;;;4.69;44.10;102642.39;107534;1286;1002491;-63
2023/02/10 07:47:18;;;;;;;26.60;13.20;;;;;;;4.74;44.03;102640.59;108052;1286;21985;-64
2023/02/10 07:49:44;;;;;;;23.30;12.50;;;;;;;4.77;43.41;102641.26;108102;1286;21992;-65
2023/02/10 07:52:10;;;;;;;24.80;12.40;;;;;;;4.78;43.59;102642.52;107344;1287;1002795;-64
2023/02/10 07:54:37;;;;;;;22.20;12.20;;;;;;;4.86;43.77;102642.88;108116;1286;23699;-65
2023/02/10 07:57:02;;;;;;;24.00;13.40;;;;;;;4.96;43.56;102641.62;108104;1287;21990;-67
2023/02/10 07:59:28;;;;;;;23.80;13.00;;;;;;;5.05;43.20;102638.72;108125;1287;21994;-65
2023/02/10 08:01:55;;;;;;;22.20;12.40;;;;;;;5.12;42.90;102632.94;108116;1287;21994;-65
2023/02/10 08:04:20;;;;;;;28.00;13.60;;;;;;;5.23;43.32;102634.86;108101;1280;21990;-66
2023/02/10 08:06:46;;;;;;;21.20;11.80;;;;;;;5.30;42.99;102636.91;107327;1288;1002442;-65
2023/02/10 08:09:12;;;;;;;22.40;11.30;;;;;;;5.35;42.66;102637.13;107360;1288;1003136;-65
2023/02/10 08:11:39;;;;;;;22.20;11.80;;;;;;;5.43;42.60;102637.14;108073;1287;22004;-65
2023/02/10 08:14:05;;;;;;;23.10;11.10;;;;;;;5.50;42.43;102641.83;107854;1287;22059;-68
2023/02/10 08:16:31;;;;;;;18.90;9.90;;;;;;;5.56;42.46;102643.81;108047;1287;23701;-67
2023/02/10 08:18:57;;;;;;;19.30;9.80;;;;;;;5.68;42.37;102641.04;108221;1287;22033;-67
2023/02/10 08:21:25;;;;;;;17.60;9.30;;;;;;;5.81;42.24;102637.77;107408;1287;1003723;-67
2023/02/10 08:23:54;;;;;;;18.80;10.60;;;;;;;5.90;41.84;102630.64;108165;1287;24412;-67
2023/02/10 08:26:22;;;;;;;18.70;9.70;;;;;;;5.98;41.65;102627.14;108121;1287;22050;-66
2023/02/10 08:28:48;;;;;;;19.70;10.10;;;;;;;6.00;40.43;102623.41;108149;1287;22134;-67
2023/02/10 08:31:15;;;;;;;19.00;10.50;;;;;;;5.98;40.34;102624.20;108096;1283;22011;-67
2023/02/10 08:33:42;;;;;;;16.70;9.70;;;;;;;5.99;40.67;102628.23;107118;1287;1002335;-66
2023/02/10 08:36:09;;;;;;;17.70;9.40;;;;;;;6.01;40.39;102630.27;108093;1287;22074;-66
2023/02/10 08:38:35;;;;;;;19.70;10.10;;;;;;;6.03;40.23;102630.02;108073;1287;21998;-66
2023/02/10 08:41:01;;;;;;;19.70;10.00;;;;;;;6.13;41.03;102624.34;108124;1287;21987;-67
2023/02/10 08:43:27;;;;;;;16.20;8.70;;;;;;;6.26;39.97;102622.77;108173;1287;21991;-67
2023/02/10 08:45:57;;;;;;;15.40;9.30;;;;;;;6.30;39.82;102619.44;108246;1286;21997;-67
2023/02/10 08:48:23;;;;;;;15.30;8.30;;;;;;;6.37;39.82;102614.16;108235;1287;22009;-64
2023/02/10 08:50:49;;;;;;;16.70;8.20;;;;;;;6.49;39.99;102610.46;108061;1287;23638;-67
2023/02/10 08:53:15;;;;;;;18.70;9.30;;;;;;;6.65;40.41;102611.09;107417;1287;1005923;-64
2023/02/10 08:55:41;;;;;;;15.50;8.20;;;;;;;6.84;40.66;102611.98;107410;1280;1002727;-67
2023/02/10 08:58:08;;;;;;;14.50;7.40;;;;;;;7.01;40.08;102605.15;107343;1287;1002265;-68
2023/02/10 09:00:34;;;;;;;15.20;7.40;;;;;;;7.04;38.05;102607.19;107173;1287;1002397;-68
2023/02/10 09:03:03;;;;;;;16.80;6.70;;;;;;;7.05;39.16;102611.06;108091;1281;21982;-68
2023/02/10 09:05:29;;;;;;;13.60;7.60;;;;;;;7.13;39.22;102603.32;108148;1287;21989;-68
2023/02/10 09:07:55;;;;;;;14.20;6.90;;;;;;;7.22;37.92;102598.41;108240;1286;21992;-69
2023/02/10 09:10:20;;;;;;;15.30;6.50;;;;;;;7.30;37.38;102598.00;108074;1284;21989;-69
2023/02/10 09:12:48;;;;;;;13.30;7.90;;;;;;;7.35;37.55;102597.32;108187;1276;21993;-64
2023/02/10 09:15:13;;;;;;;16.00;7.90;;;;;;;7.39;37.35;102602.88;107538;1287;1002615;-66
2023/02/10 09:17:39;;;;;;;21.50;9.50;;;;;;;7.45;37.52;102601.38;107394;1279;1002867;-66
2023/02/10 09:20:06;;;;;;;23.00;10.50;;;;;;;7.50;37.59;102596.64;108074;1287;22022;-69
2023/02/10 09:22:32;;;;;;;16.50;7.70;;;;;;;7.58;37.48;102594.48;107969;1279;21990;-69
2023/02/10 09:24:59;;;;;;;19.90;8.10;;;;;;;7.66;37.54;102592.99;108023;1274;21992;-66
2023/02/10 09:27:26;;;;;;;21.30;10.90;;;;;;;7.77;37.47;102582.56;107388;1283;1002646;-67
2023/02/10 09:29:53;;;;;;;13.50;7.30;;;;;;;7.87;36.31;102579.95;108160;1287;21998;-64
2023/02/10 09:32:19;;;;;;;12.10;7.10;;;;;;;8.00;36.52;102574.77;108143;1287;21992;-68
2023/02/10 09:34:45;;;;;;;13.00;6.60;;;;;;;8.08;35.78;102571.90;107331;1287;1002739;-69
2023/02/10 09:37:11;;;;;;;10.40;6.00;;;;;;;8.23;36.72;102566.60;107325;1287;1002627;-66
2023/02/10 09:39:38;;;;;;;11.00;6.30;;;;;;;8.42;37.42;102560.04;107366;1287;1003191;-68
2023/02/10 09:42:20;;;;;;;13.80;6.30;;;;;;;8.50;35.72;102556.62;107350;1287;1002456;-69
2023/02/10 09:44:56;;;;;;;11.80;6.40;;;;;;;8.62;36.48;102547.55;108017;1287;21995;-64
2023/02/10 09:47:28;;;;;;;9.80;5.40;;;;;;;8.72;36.20;102544.70;108041;1287;22003;-68
2023/02/10 09:50:19;;;;;;;10.20;5.90;;;;;;;8.68;35.93;102543.88;108107;1287;24445;-65
2023/02/10 09:53:00;;;;;;;10.70;6.00;;;;;;;8.75;36.34;102543.93;107377;1286;1002547;-68
2023/02/10 09:55:45;;;;;;;10.60;5.60;;;;;;;8.94;35.90;102541.50;108067;1287;21993;-65
2023/02/10 09:58:33;;;;;;;9.00;5.60;;;;;;;9.14;36.30;102537.88;108090;1274;21997;-69
2023/02/10 10:01:10;;;;;;;10.30;5.40;;;;;;;9.31;36.25;102530.61;108072;1287;21989;-66
2023/02/10 10:04:01;;;;;;;10.00;5.90;;;;;;;9.41;35.59;102520.91;108253;1287;23646;-65
2023/02/10 10:06:29;;;;;;;9.30;5.80;;;;;;;9.61;35.88;102518.98;108207;1287;21995;-70
2023/02/10 10:09:00;;;;;;;11.00;5.80;;;;;;;9.78;35.55;102512.90;108037;1287;21983;-70
2023/02/10 10:11:48;;;;;;;8.90;5.40;;;;;;;9.83;35.50;102506.73;108055;1287;23136;-69
2023/02/10 10:14:19;;;;;;;12.70;7.40;;;;;;;9.91;35.16;102500.77;108074;1287;21992;-69
2023/02/10 10:17:15;;;;;;;10.30;5.10;;;;;;;9.95;33.91;102500.19;108178;1287;21992;-70
2023/02/10 10:19:49;;;;;;;8.90;5.00;;;;;;;9.96;33.96;102499.52;108144;1286;23650;-65
2023/02/10 10:22:20;;;;;;;10.60;5.70;;;;;;;10.02;33.94;102498.25;107391;1287;1002973;-65
2023/02/10 10:25:15;;;;;;;33.30;17.60;;;;;;;10.06;33.51;102502.39;108104;1287;23839;-68
2023/02/10 10:28:07;;;;;;;289.80;99.40;;;;;;;10.03;33.59;102503.88;108044;1284;21993;-65
2023/02/10 10:30:40;;;;;;;610.40;244.70;;;;;;;10.07;33.35;102500.84;108051;1287;22056;-65
2023/02/10 10:33:24;;;;;;;348.20;113.20;;;;;;;10.16;33.93;102495.94;108143;1287;21994;-66
2023/02/10 10:35:50;;;;;;;40.80;16.70;;;;;;;10.27;33.82;102489.70;108063;1287;21996;-69
2023/02/10 10:38:19;;;;;;;19.70;10.60;;;;;;;10.35;32.89;102487.26;108055;1287;22207;-69
2023/02/10 10:40:46;;;;;;;10.10;5.20;;;;;;;10.45;33.49;102482.05;108160;1287;23671;-68
2023/02/10 10:43:15;;;;;;;9.10;4.70;;;;;;;10.51;32.39;102482.20;108156;1287;21988;-66
2023/02/10 10:45:44;;;;;;;9.10;5.00;;;;;;;10.49;32.12;102482.68;108195;1287;22000;-65
2023/02/10 10:48:24;;;;;;;8.10;4.60;;;;;;;10.51;32.84;102482.70;107958;1287;21995;-68
2023/02/10 10:50:49;;;;;;;8.50;3.70;;;;;;;10.51;32.85;102478.15;108086;1287;22002;-69
2023/02/10 10:53:22;;;;;;;8.40;4.60;;;;;;;10.56;32.96;102477.73;108053;1287;21992;-68
2023/02/10 10:55:53;;;;;;;7.30;3.90;;;;;;;10.63;32.57;102471.55;108065;1287;21993;-68
2023/02/10 10:58:35;;;;;;;9.70;5.20;;;;;;;10.66;31.87;102467.76;108024;1287;22619;-65
2023/02/10 11:01:01;;;;;;;9.60;4.90;;;;;;;10.77;32.25;102467.80;108112;1287;21992;-65
2023/02/10 11:03:27;;;;;;;16.60;7.80;;;;;;;10.75;31.52;102464.09;108092;1287;21990;-68
2023/02/10 11:06:05;;;;;;;12.00;5.80;;;;;;;10.66;30.89;102460.55;108199;1285;23690;-65
2023/02/10 11:08:58;;;;;;;9.20;3.70;;;;;;;10.68;32.02;102453.94;107382;1287;1002797;-64
2023/02/10 11:11:33;;;;;;;6.50;3.50;;;;;;;10.79;31.87;102450.98;108058;1287;22103;-65
2023/02/10 11:14:01;;;;;;;6.60;3.30;;;;;;;10.86;32.31;102440.40;108139;1285;22168;-68